createdAt,value
2019-02-25T00:00:48.896Z,3.30
2019-02-25T00:03:18.341Z,3.36
2019-02-25T00:05:47.768Z,3.51
2019-02-25T00:08:17.209Z,3.53
2019-02-25T00:10:46.645Z,3.47
2019-02-25T00:13:16.078Z,3.28
2019-02-25T00:15:45.504Z,3.43
2019-02-25T00:18:15.223Z,3.43
2019-02-25T00:20:44.933Z,3.28
2019-02-25T00:23:14.379Z,2.97
2019-02-25T00:25:43.802Z,2.87
2019-02-25T00:28:13.250Z,3.04
2019-02-25T00:30:42.692Z,3.06
2019-02-25T00:33:12.128Z,2.90
2019-02-25T00:35:41.554Z,2.83
2019-02-25T00:38:10.994Z,2.82
2019-02-25T00:40:40.465Z,2.90
2019-02-25T00:43:09.863Z,2.82
2019-02-25T00:45:39.291Z,2.72
2019-02-25T00:48:08.955Z,2.72
2019-02-25T00:50:38.389Z,2.62
2019-02-25T00:53:07.841Z,2.52
2019-02-25T00:55:37.274Z,2.36
2019-02-25T00:58:06.714Z,2.50
2019-02-25T01:00:36.817Z,2.59
2019-02-25T01:03:06.789Z,2.39
2019-02-25T01:05:36.303Z,2.45
2019-02-25T01:08:07.806Z,2.41
2019-02-25T01:10:37.388Z,2.17
2019-02-25T01:13:06.827Z,2.18
2019-02-25T01:15:36.256Z,2.12
2019-02-25T01:18:05.697Z,2.23
2019-02-25T01:20:35.125Z,2.04
2019-02-25T01:23:04.558Z,2.07
2019-02-25T01:25:33.999Z,2.03
2019-02-25T01:28:03.432Z,2.14
2019-02-25T01:30:32.874Z,2.22
2019-02-25T01:33:02.301Z,2.13
2019-02-25T01:35:31.745Z,2.19
2019-02-25T01:38:01.175Z,2.26
2019-02-25T01:40:30.610Z,2.38
2019-02-25T01:43:00.039Z,2.33
2019-02-25T01:45:29.482Z,2.11
2019-02-25T01:47:58.912Z,1.92
2019-02-25T01:50:28.349Z,2.03
2019-02-25T01:52:57.781Z,2.13
2019-02-25T01:55:29.001Z,2.04
2019-02-25T01:57:58.418Z,1.74
2019-02-25T02:00:27.927Z,1.76
2019-02-25T02:02:57.675Z,1.81
2019-02-25T02:05:27.108Z,1.76
2019-02-25T02:07:57.210Z,1.78
2019-02-25T02:10:26.644Z,1.82
2019-02-25T02:12:56.077Z,1.78
2019-02-25T02:15:25.511Z,1.92
2019-02-25T02:17:54.948Z,1.79
2019-02-25T02:20:24.631Z,1.70
2019-02-25T02:22:54.056Z,1.54
2019-02-25T02:25:23.500Z,1.52
2019-02-25T02:27:52.934Z,1.46
2019-02-25T02:30:23.217Z,1.32
2019-02-25T02:32:52.637Z,1.50
2019-02-25T02:35:22.075Z,1.40
2019-02-25T02:37:51.514Z,1.33
2019-02-25T02:40:20.978Z,1.23
2019-02-25T02:43:01.038Z,1.41
2019-02-25T02:45:34.954Z,1.48
2019-02-25T02:48:17.639Z,1.40
2019-02-25T02:50:47.091Z,1.41
2019-02-25T02:53:16.511Z,1.33
2019-02-25T02:55:45.950Z,1.49
2019-02-25T02:58:15.383Z,1.57
2019-02-25T03:00:44.822Z,1.54
2019-02-25T03:03:14.253Z,1.69
2019-02-25T03:05:43.711Z,1.62
2019-02-25T03:08:13.128Z,1.55
2019-02-25T03:10:42.567Z,1.73
2019-02-25T03:13:11.999Z,1.77
2019-02-25T03:15:41.437Z,1.61
2019-02-25T03:18:10.864Z,1.43
2019-02-25T03:20:40.308Z,1.28
2019-02-25T03:23:09.740Z,1.29
2019-02-25T03:25:39.170Z,1.26
2019-02-25T03:28:08.619Z,1.11
2019-02-25T03:30:38.048Z,1.20
2019-02-25T03:33:07.489Z,0.94
2019-02-25T03:35:36.900Z,0.82
2019-02-25T03:38:06.408Z,0.68
2019-02-25T03:40:35.840Z,0.82
2019-02-25T03:43:05.283Z,0.81
2019-02-25T03:45:34.710Z,1.03
2019-02-25T03:48:04.147Z,1.05
2019-02-25T03:50:33.579Z,1.05
2019-02-25T03:53:03.018Z,0.95
2019-02-25T03:55:32.460Z,0.87
2019-02-25T03:58:01.890Z,0.81
2019-02-25T04:00:31.324Z,0.84
2019-02-25T04:03:00.768Z,0.74
2019-02-25T04:05:30.202Z,0.86
2019-02-25T04:07:59.704Z,0.75
2019-02-25T04:10:29.137Z,0.97
2019-02-25T04:12:58.566Z,0.86
2019-02-25T04:15:29.635Z,0.86
2019-02-25T04:17:59.084Z,0.68
2019-02-25T04:20:28.511Z,0.60
2019-02-25T04:22:57.951Z,0.61
2019-02-25T04:25:27.381Z,0.75
2019-02-25T04:27:56.825Z,0.57
2019-02-25T04:30:26.253Z,0.52
2019-02-25T04:32:55.703Z,0.61
2019-02-25T04:35:25.131Z,0.47
2019-02-25T04:37:54.570Z,0.44
2019-02-25T04:40:24.008Z,0.33
2019-02-25T04:42:53.445Z,0.38
2019-02-25T04:45:22.869Z,0.47
2019-02-25T04:47:52.313Z,0.34
2019-02-25T04:50:21.768Z,0.36
2019-02-25T04:52:51.210Z,0.31
2019-02-25T04:55:20.643Z,0.30
2019-02-25T04:57:50.087Z,0.35
2019-02-25T05:00:24.776Z,0.27
2019-02-25T05:02:54.215Z,0.11
2019-02-25T05:05:23.662Z,-0.05
2019-02-25T05:07:53.093Z,-0.01
2019-02-25T05:10:22.519Z,0.01
2019-02-25T05:12:56.334Z,0.02
2019-02-25T05:15:27.295Z,0.11
2019-02-25T05:17:56.733Z,0.00
2019-02-25T05:20:26.166Z,0.01
2019-02-25T05:22:55.606Z,0.00
2019-02-25T05:25:25.703Z,0.02
2019-02-25T05:27:55.146Z,0.11
2019-02-25T05:30:24.576Z,0.18
2019-02-25T05:32:54.017Z,0.31
2019-02-25T05:35:23.450Z,0.31
2019-02-25T05:37:52.905Z,0.48
2019-02-25T05:40:22.499Z,0.32
2019-02-25T05:42:51.940Z,0.36
2019-02-25T05:45:21.445Z,0.28
2019-02-25T05:47:50.888Z,0.32
2019-02-25T05:50:23.436Z,0.47
2019-02-25T05:52:52.878Z,0.40
2019-02-25T05:55:22.323Z,0.26
2019-02-25T05:57:51.777Z,0.21
2019-02-25T06:00:29.322Z,0.18
2019-02-25T06:02:58.766Z,0.18
2019-02-25T06:05:28.201Z,0.15
2019-02-25T06:07:57.643Z,0.08
2019-02-25T06:10:27.075Z,-0.01
2019-02-25T06:12:56.518Z,-0.02
2019-02-25T06:15:25.953Z,0.04
2019-02-25T06:17:55.388Z,0.15
2019-02-25T06:20:24.832Z,0.19
2019-02-25T06:22:54.267Z,0.27
2019-02-25T06:25:23.710Z,0.24
2019-02-25T06:27:53.138Z,0.43
2019-02-25T06:30:24.390Z,0.42
2019-02-25T06:32:53.888Z,0.38
2019-02-25T06:35:23.324Z,0.42
2019-02-25T06:37:52.761Z,0.28
2019-02-25T06:40:22.666Z,0.37
2019-02-25T06:42:52.078Z,0.45
2019-02-25T06:45:30.974Z,0.48
2019-02-25T06:48:00.099Z,0.48
2019-02-25T06:50:30.368Z,0.42
2019-02-25T06:52:59.806Z,0.42
2019-02-25T06:55:29.240Z,0.49
2019-02-25T06:57:58.686Z,0.58
2019-02-25T07:00:28.132Z,0.69
2019-02-25T07:02:57.576Z,0.74
2019-02-25T07:05:46.721Z,0.87
2019-02-25T07:08:17.802Z,0.96
2019-02-25T07:11:03.927Z,0.90
2019-02-25T07:13:47.029Z,0.95
2019-02-25T07:16:27.122Z,1.02
2019-02-25T07:19:03.903Z,1.03
2019-02-25T07:21:36.083Z,1.16
2019-02-25T07:24:19.200Z,1.28
2019-02-25T07:26:50.273Z,1.45
2019-02-25T07:29:22.436Z,1.48
2019-02-25T07:31:53.511Z,1.58
2019-02-25T07:34:27.563Z,1.62
2019-02-25T07:36:58.635Z,1.75
2019-02-25T07:39:29.717Z,1.73
2019-02-25T07:42:12.620Z,1.74
2019-02-25T07:44:58.415Z,1.83
2019-02-25T07:47:32.296Z,1.90
2019-02-25T07:50:03.383Z,1.93
2019-02-25T07:52:52.768Z,1.85
2019-02-25T07:55:42.215Z,1.88
2019-02-25T07:58:29.695Z,1.98
2019-02-25T08:01:00.777Z,2.07
2019-02-25T08:03:34.870Z,2.10
2019-02-25T08:06:15.095Z,2.21
2019-02-25T08:09:02.217Z,2.35
2019-02-25T08:11:48.546Z,2.40
2019-02-25T08:14:35.695Z,2.52
2019-02-25T08:17:22.678Z,2.61
2019-02-25T08:19:53.756Z,2.67
2019-02-25T08:22:33.469Z,2.80
2019-02-25T08:25:05.331Z,2.85
2019-02-25T08:27:34.524Z,2.96
2019-02-25T08:30:15.118Z,2.95
2019-02-25T08:32:46.192Z,3.04
2019-02-25T08:35:48.485Z,3.08
2019-02-25T08:38:25.241Z,3.12
2019-02-25T08:41:01.814Z,3.20
2019-02-25T08:43:44.515Z,3.26
2019-02-25T08:46:19.650Z,3.34
2019-02-25T08:48:56.864Z,3.42
2019-02-25T08:51:26.310Z,3.47
2019-02-25T08:53:55.748Z,3.56
2019-02-25T08:56:25.187Z,3.63
2019-02-25T08:58:54.619Z,3.68
2019-02-25T09:01:24.079Z,3.75
2019-02-25T09:03:53.505Z,3.84
2019-02-25T09:06:22.964Z,3.93
2019-02-25T09:08:52.397Z,4.02
2019-02-25T09:11:21.843Z,4.10
2019-02-25T09:13:51.272Z,4.18
2019-02-25T09:16:20.722Z,4.37
2019-02-25T09:18:50.160Z,4.50
2019-02-25T09:21:19.595Z,4.49
2019-02-25T09:23:49.031Z,4.56
2019-02-25T09:26:18.476Z,4.61
2019-02-25T09:28:49.800Z,4.64
2019-02-25T09:31:19.297Z,4.75
2019-02-25T09:33:48.945Z,4.94
2019-02-25T09:36:18.378Z,5.10
2019-02-25T09:38:47.819Z,5.24
2019-02-25T09:41:17.245Z,5.35
2019-02-25T09:43:46.696Z,5.38
2019-02-25T09:46:16.132Z,5.44
2019-02-25T09:48:45.565Z,5.55
2019-02-25T09:51:15.007Z,5.59
2019-02-25T09:53:44.449Z,5.64
2019-02-25T09:56:13.874Z,5.75
2019-02-25T09:58:43.315Z,5.84
2019-02-25T10:01:12.810Z,5.91
2019-02-25T10:03:42.261Z,6.10
2019-02-25T10:06:12.972Z,6.64
2019-02-25T10:08:42.518Z,7.03
2019-02-25T10:11:11.954Z,7.32
2019-02-25T10:13:41.397Z,7.36
2019-02-25T10:16:10.826Z,7.64
2019-02-25T10:18:40.264Z,7.80
2019-02-25T10:21:09.700Z,7.75
2019-02-25T10:23:40.507Z,7.70
2019-02-25T10:26:09.967Z,7.77
2019-02-25T10:28:39.422Z,7.95
2019-02-25T10:31:08.857Z,7.90
2019-02-25T10:33:38.301Z,7.93
2019-02-25T10:36:07.732Z,7.96
2019-02-25T10:38:37.608Z,8.03
2019-02-25T10:41:07.085Z,8.07
2019-02-25T10:43:36.663Z,8.14
2019-02-25T10:46:06.992Z,8.22
2019-02-25T10:48:36.935Z,8.32
2019-02-25T10:51:09.206Z,8.45
2019-02-25T10:53:38.322Z,8.57
2019-02-25T10:56:14.348Z,8.69
2019-02-25T10:58:43.861Z,8.73
2019-02-25T11:01:17.489Z,9.01
2019-02-25T11:03:45.611Z,9.62
2019-02-25T11:06:15.630Z,10.02
2019-02-25T11:08:46.720Z,10.46
2019-02-25T11:11:18.856Z,10.45
2019-02-25T11:13:48.974Z,10.31
2019-02-25T11:16:20.374Z,10.61
2019-02-25T11:18:50.661Z,10.51
2019-02-25T11:21:20.768Z,10.48
2019-02-25T11:23:51.678Z,10.62
2019-02-25T11:26:21.382Z,10.77
2019-02-25T11:28:51.065Z,10.74
2019-02-25T11:31:24.123Z,10.97
2019-02-25T11:33:51.995Z,11.01
2019-02-25T11:36:22.085Z,10.98
2019-02-25T11:38:51.634Z,10.96
2019-02-25T11:41:21.078Z,11.07
2019-02-25T11:43:52.839Z,11.05
2019-02-25T11:46:21.687Z,11.14
2019-02-25T11:48:51.134Z,11.20
2019-02-25T11:51:20.594Z,11.30
2019-02-25T11:53:50.047Z,11.57
2019-02-25T11:56:19.482Z,11.59
2019-02-25T11:58:48.949Z,11.72
2019-02-25T12:01:18.391Z,11.78
2019-02-25T12:03:47.839Z,11.86
2019-02-25T12:06:17.277Z,11.96
2019-02-25T12:08:46.719Z,12.39
2019-02-25T12:11:16.169Z,12.35
2019-02-25T12:13:45.612Z,12.20
2019-02-25T12:16:15.062Z,12.22
2019-02-25T12:18:44.512Z,12.20
2019-02-25T12:21:15.478Z,12.27
2019-02-25T12:23:44.937Z,12.25
2019-02-25T12:26:14.383Z,12.81
2019-02-25T12:28:43.892Z,12.71
2019-02-25T12:31:15.464Z,12.71
2019-02-25T12:33:44.903Z,12.68
2019-02-25T12:36:14.350Z,13.04
2019-02-25T12:38:43.789Z,13.14
2019-02-25T12:41:13.240Z,13.02
2019-02-25T12:43:42.689Z,13.00
2019-02-25T12:46:12.126Z,12.92
2019-02-25T12:48:41.569Z,12.97
2019-02-25T12:51:11.022Z,13.12
2019-02-25T12:53:40.466Z,13.19
2019-02-25T12:56:09.922Z,13.35
2019-02-25T12:58:39.368Z,13.42
2019-02-25T13:01:09.130Z,13.77
2019-02-25T13:03:38.640Z,17.40
2019-02-25T13:06:08.093Z,16.69
2019-02-25T13:08:37.536Z,16.20
2019-02-25T13:11:06.996Z,15.63
2019-02-25T13:13:36.431Z,15.32
2019-02-25T13:16:05.895Z,14.93
2019-02-25T13:18:35.340Z,14.88
2019-02-25T13:21:04.790Z,14.73
2019-02-25T13:23:34.232Z,14.64
2019-02-25T13:26:07.401Z,14.51
2019-02-25T13:28:34.842Z,14.64
2019-02-25T13:31:05.676Z,14.62
2019-02-25T13:33:35.456Z,14.53
2019-02-25T13:36:09.612Z,14.51
2019-02-25T13:38:39.048Z,14.71
2019-02-25T13:41:08.505Z,14.78
2019-02-25T13:43:37.952Z,14.67
2019-02-25T13:46:07.401Z,14.56
2019-02-25T13:48:36.838Z,14.64
2019-02-25T13:51:06.293Z,14.60
2019-02-25T13:53:35.738Z,14.76
2019-02-25T13:56:05.754Z,14.63
2019-02-25T13:58:35.673Z,14.68
2019-02-25T14:01:05.586Z,14.74
2019-02-25T14:03:35.022Z,14.80
2019-02-25T14:06:06.393Z,14.68
2019-02-25T14:08:35.825Z,14.68
2019-02-25T14:11:05.324Z,14.67
2019-02-25T14:13:34.789Z,14.82
2019-02-25T14:16:04.313Z,14.89
2019-02-25T14:18:33.768Z,14.87
2019-02-25T14:21:03.375Z,15.06
2019-02-25T14:23:32.811Z,14.95
2019-02-25T14:26:02.271Z,14.92
2019-02-25T14:28:31.701Z,14.84
2019-02-25T14:31:01.244Z,14.94
2019-02-25T14:33:30.677Z,14.92
2019-02-25T14:36:00.309Z,14.91
2019-02-25T14:38:30.481Z,14.95
2019-02-25T14:41:01.883Z,14.97
2019-02-25T14:43:37.091Z,15.09
2019-02-25T14:46:04.866Z,15.09
2019-02-25T14:48:35.287Z,15.30
2019-02-25T14:51:05.284Z,15.24
2019-02-25T14:53:34.715Z,15.43
2019-02-25T14:56:04.337Z,15.59
2019-02-25T14:58:36.170Z,15.47
2019-02-25T15:01:05.653Z,15.38
2019-02-25T15:03:35.092Z,15.41
2019-02-25T15:06:04.532Z,15.37
2019-02-25T15:08:33.981Z,15.38
2019-02-25T15:11:04.929Z,15.33
2019-02-25T15:13:35.427Z,15.37
2019-02-25T15:16:05.883Z,15.40
2019-02-25T15:18:35.340Z,15.38
2019-02-25T15:21:06.814Z,15.48
2019-02-25T15:23:37.408Z,15.65
2019-02-25T15:26:06.853Z,15.55
2019-02-25T15:28:36.878Z,15.58
2019-02-25T15:31:06.984Z,15.64
2019-02-25T15:33:38.022Z,15.86
2019-02-25T15:36:11.481Z,16.89
2019-02-25T15:38:41.347Z,17.30
2019-02-25T15:41:11.832Z,19.06
2019-02-25T15:43:41.359Z,20.47
2019-02-25T15:46:12.483Z,21.69
2019-02-25T15:48:43.554Z,22.98
2019-02-25T15:51:13.135Z,24.00
2019-02-25T15:53:46.227Z,25.04
2019-02-25T15:56:14.173Z,22.80
2019-02-25T15:58:43.790Z,20.43
2019-02-25T16:01:14.169Z,19.55
2019-02-25T16:03:43.619Z,19.58
2019-02-25T16:06:13.134Z,18.68
2019-02-25T16:08:42.652Z,17.95
2019-02-25T16:11:13.958Z,17.53
2019-02-25T16:13:43.396Z,17.08
2019-02-25T16:16:13.176Z,16.82
2019-02-25T16:18:42.705Z,16.48
2019-02-25T16:21:13.252Z,16.34
2019-02-25T16:23:43.687Z,16.19
2019-02-25T16:26:15.704Z,16.10
2019-02-25T16:28:45.262Z,15.89
2019-02-25T16:31:14.949Z,15.61
2019-02-25T16:33:44.432Z,15.48
2019-02-25T16:36:13.878Z,15.27
2019-02-25T16:38:43.618Z,15.06
2019-02-25T16:41:13.063Z,14.89
2019-02-25T16:43:42.512Z,14.76
2019-02-25T16:46:14.038Z,14.63
2019-02-25T16:48:43.578Z,14.53
2019-02-25T16:51:13.032Z,14.43
2019-02-25T16:53:43.291Z,14.30
2019-02-25T16:56:14.162Z,14.18
2019-02-25T16:58:43.761Z,14.07
2019-02-25T17:01:13.297Z,14.06
2019-02-25T17:03:43.827Z,13.91
2019-02-25T17:06:14.148Z,13.80
2019-02-25T17:08:43.700Z,13.76
2019-02-25T17:11:15.178Z,13.80
2019-02-25T17:13:44.398Z,13.75
2019-02-25T17:16:18.032Z,13.56
2019-02-25T17:18:46.377Z,13.35
2019-02-25T17:21:16.262Z,13.35
2019-02-25T17:23:45.976Z,13.27
2019-02-25T17:26:17.508Z,13.16
2019-02-25T17:28:46.876Z,12.97
2019-02-25T17:31:18.554Z,12.85
2019-02-25T17:33:49.248Z,12.79
2019-02-25T17:36:19.059Z,12.67
2019-02-25T17:38:50.121Z,12.58
2019-02-25T17:41:20.033Z,12.53
2019-02-25T17:43:49.540Z,12.30
2019-02-25T17:46:18.983Z,12.19
2019-02-25T17:48:48.423Z,12.12
2019-02-25T17:51:18.572Z,11.99
2019-02-25T17:53:50.494Z,11.96
2019-02-25T17:56:20.846Z,11.88
2019-02-25T17:58:51.378Z,11.73
2019-02-25T18:01:22.003Z,11.70
2019-02-25T18:03:52.066Z,11.65
2019-02-25T18:06:22.909Z,11.53
2019-02-25T18:08:53.544Z,11.42
2019-02-25T18:11:24.703Z,11.29
2019-02-25T18:13:55.721Z,11.32
2019-02-25T18:16:25.416Z,11.22
2019-02-25T18:18:55.492Z,11.09
2019-02-25T18:21:28.871Z,11.03
2019-02-25T18:23:57.278Z,10.95
2019-02-25T18:26:28.609Z,10.85
2019-02-25T18:28:58.164Z,10.73
2019-02-25T18:31:27.887Z,10.69
2019-02-25T18:33:57.330Z,10.72
2019-02-25T18:36:28.813Z,10.61
2019-02-25T18:38:58.208Z,10.48
2019-02-25T18:41:31.389Z,10.43
2019-02-25T18:43:58.892Z,10.34
2019-02-25T18:46:29.775Z,10.25
2019-02-25T18:48:59.533Z,10.10
2019-02-25T18:51:30.558Z,9.97
2019-02-25T18:54:02.046Z,9.98
2019-02-25T18:56:31.374Z,9.98
2019-02-25T18:59:08.850Z,9.95
2019-02-25T19:01:32.222Z,9.88
2019-02-25T19:04:01.649Z,9.78
2019-02-25T19:06:31.097Z,9.79
2019-02-25T19:09:00.535Z,9.72
2019-02-25T19:11:29.972Z,9.61
2019-02-25T19:14:01.835Z,9.60
2019-02-25T19:16:30.579Z,9.51
2019-02-25T19:19:03.539Z,9.44
2019-02-25T19:21:31.957Z,9.36
2019-02-25T19:24:03.561Z,9.26
2019-02-25T19:26:33.651Z,9.17
2019-02-25T19:29:03.081Z,9.17
2019-02-25T19:31:32.528Z,9.09
2019-02-25T19:34:02.140Z,9.07
2019-02-25T19:36:32.520Z,8.90
2019-02-25T19:39:07.280Z,8.94
2019-02-25T19:41:34.065Z,8.89
2019-02-25T19:44:04.194Z,8.81
2019-02-25T19:46:34.796Z,8.87
2019-02-25T19:49:04.240Z,8.82
2019-02-25T19:51:33.686Z,8.80
2019-02-25T19:54:05.185Z,8.70
2019-02-25T19:56:34.622Z,8.65
2019-02-25T19:59:05.665Z,8.59
2019-02-25T20:01:35.226Z,8.60
2019-02-25T20:04:07.051Z,8.51
2019-02-25T20:06:35.968Z,8.33
2019-02-25T20:09:07.672Z,8.20
2019-02-25T20:11:37.178Z,8.13
2019-02-25T20:14:06.632Z,8.16
2019-02-25T20:16:36.132Z,7.98
2019-02-25T20:19:06.810Z,8.03
2019-02-25T20:21:36.357Z,8.00
2019-02-25T20:24:07.769Z,7.84
2019-02-25T20:26:37.034Z,7.81
2019-02-25T20:29:08.371Z,7.76
2019-02-25T20:31:37.634Z,7.66
2019-02-25T20:34:07.072Z,7.65
2019-02-25T20:36:36.784Z,7.50
2019-02-25T20:39:06.671Z,7.44
2019-02-25T20:41:36.103Z,7.40
2019-02-25T20:44:05.811Z,7.39
2019-02-25T20:46:35.717Z,7.34
2019-02-25T20:49:05.237Z,7.05
2019-02-25T20:51:36.196Z,7.06
2019-02-25T20:54:05.872Z,6.86
2019-02-25T20:56:35.297Z,6.78
2019-02-25T20:59:06.123Z,6.77
2019-02-25T21:01:39.510Z,6.76
2019-02-25T21:04:08.874Z,6.72
2019-02-25T21:06:39.706Z,6.71
2019-02-25T21:09:11.101Z,6.61
2019-02-25T21:11:40.707Z,6.47
2019-02-25T21:14:10.140Z,6.45
2019-02-25T21:16:39.568Z,6.56
2019-02-25T21:19:10.773Z,6.56
2019-02-25T21:21:40.240Z,6.55
2019-02-25T21:24:11.763Z,6.52
2019-02-25T21:26:41.061Z,6.45
2019-02-25T21:29:10.659Z,6.41
2019-02-25T21:31:43.298Z,6.27
2019-02-25T21:34:15.344Z,6.07
2019-02-25T21:36:43.086Z,6.11
2019-02-25T21:39:14.767Z,5.98
2019-02-25T21:41:45.843Z,5.95
2019-02-25T21:44:18.842Z,6.01
2019-02-25T21:46:49.588Z,5.99
2019-02-25T21:49:17.789Z,5.94
2019-02-25T21:51:48.128Z,5.99
2019-02-25T21:54:17.644Z,5.89
2019-02-25T21:56:47.066Z,5.81
2019-02-25T21:59:17.537Z,5.76
2019-02-25T22:01:47.219Z,5.66
2019-02-25T22:04:17.990Z,5.64
2019-02-25T22:06:51.022Z,5.69
2019-02-25T22:09:32.731Z,5.57
2019-02-25T22:11:50.401Z,5.39
2019-02-25T22:14:21.586Z,5.37
2019-02-25T22:16:52.650Z,5.32
2019-02-25T22:19:22.156Z,5.17
2019-02-25T22:21:55.458Z,5.15
2019-02-25T22:24:27.144Z,5.01
2019-02-25T22:26:55.833Z,5.02
2019-02-25T22:29:25.082Z,5.12
2019-02-25T22:31:54.519Z,5.09
2019-02-25T22:34:25.346Z,5.12
2019-02-25T22:36:55.966Z,5.19
2019-02-25T22:39:27.388Z,5.16
2019-02-25T22:41:56.749Z,5.07
2019-02-25T22:44:27.034Z,5.10
2019-02-25T22:46:57.344Z,4.98
2019-02-25T22:49:28.839Z,4.94
2019-02-25T22:51:58.727Z,4.75
2019-02-25T22:54:29.126Z,4.82
2019-02-25T22:56:58.545Z,4.59
2019-02-25T22:59:27.982Z,4.68
2019-02-25T23:01:57.421Z,4.72
2019-02-25T23:04:26.865Z,4.54
2019-02-25T23:06:56.300Z,4.40
2019-02-25T23:09:25.908Z,4.42
2019-02-25T23:11:55.515Z,4.49
2019-02-25T23:14:25.206Z,4.43
2019-02-25T23:16:54.643Z,4.30
2019-02-25T23:19:24.080Z,4.30
2019-02-25T23:21:53.513Z,4.25
2019-02-25T23:24:26.035Z,4.16
2019-02-25T23:26:55.192Z,4.02
2019-02-25T23:29:28.276Z,4.07
2019-02-25T23:31:56.416Z,4.17
2019-02-25T23:34:25.859Z,4.11
2019-02-25T23:36:56.241Z,4.08
2019-02-25T23:39:25.806Z,4.19
2019-02-25T23:41:55.254Z,4.23
2019-02-25T23:44:24.760Z,4.21
2019-02-25T23:46:57.668Z,4.18
2019-02-25T23:49:27.576Z,4.19
2019-02-25T23:51:56.528Z,4.08
2019-02-25T23:54:27.916Z,4.19
2019-02-25T23:56:59.626Z,4.15
2019-02-25T23:59:28.459Z,4.25
